Time;durP1;ratioP1;P1;durP2;ratioP2;P2;SDS_P1;SDS_P2;PMS_P1;PMS_P2;Temp;Humidity;BMP_temperature;BMP_pressure;BME280_temperature;BME280_humidity;BME280_pressure;Samples;Min_cycle;Max_cycle;Signal;HPM_P1;HPM_P2
2023/08/14 00:01:20;;;;;;;;;;;;;;;16.95;67.68262;101634.9;;;;-70
2023/08/14 00:06:20;;;;;;;;;;;;;;;16.9;67.81934;101636.9;;;;-71
2023/08/14 00:11:20;;;;;;;;;;;;;;;16.87;67.80566;101632.8;;;;-69
2023/08/14 00:16:20;;;;;;;;;;;;;;;16.83;67.56152;101629.4;;;;-70
2023/08/14 00:21:20;;;;;;;;;;;;;;;16.79;68.31055;101627.6;;;;-72
2023/08/14 00:21:47;;;;;;;0.2;0;;;;;;;;;;;;;-71
2023/08/14 00:26:22;;;;;;;;;;;;;;;16.73;67.92969;101621.2;;;;-70
2023/08/14 00:31:20;;;;;;;;;;;;;;;16.69;68.11523;101613.3;;;;-71
2023/08/14 00:36:20;;;;;;;;;;;;;;;16.66;68.54883;101611.4;;;;-70
2023/08/14 00:41:20;;;;;;;;;;;;;;;16.62;68.98145;101608.1;;;;-69
2023/08/14 00:46:20;;;;;;;;;;;;;;;16.59;68.85254;101606.5;;;;-71
2023/08/14 00:51:24;;;;;;;;;;;;;;;16.54;68.24805;101612.7;;;;-70
2023/08/14 00:51:49;;;;;;;0.2;0;;;;;;;;;;;;;-69
2023/08/14 00:56:21;;;;;;;;;;;;;;;16.54;68.24902;101610.9;;;;-72
2023/08/14 01:01:21;;;;;;;;;;;;;;;16.5;68.36719;101605.1;;;;-71
2023/08/14 01:06:20;;;;;;;;;;;;;;;16.45;68.85449;101604.2;;;;-69
2023/08/14 01:11:23;;;;;;;;;;;;;;;16.4;69.09473;101605.9;;;;-70
2023/08/14 01:16:23;;;;;;;;;;;;;;;16.37;68.57129;101608;;;;-70
2023/08/14 01:21:28;;;;;;;;;;;;;;;16.37;68.71777;101601.5;;;;-70
2023/08/14 01:21:59;;;;;;;0.2;0;;;;;;;;;;;;;-70
2023/08/14 01:26:20;;;;;;;;;;;;;;;16.31;68.28027;101600.8;;;;-71
2023/08/14 01:31:20;;;;;;;;;;;;;;;16.28;69.43457;101594;;;;-71
2023/08/14 01:36:24;;;;;;;;;;;;;;;16.26;68.81348;101596.8;;;;-70
2023/08/14 01:41:22;;;;;;;;;;;;;;;16.24;69.47266;101592.1;;;;-71
2023/08/14 01:46:21;;;;;;;;;;;;;;;16.28;69.23242;101583.1;;;;-72
2023/08/14 01:51:23;;;;;;;;;;;;;;;16.24;69.46094;101567.3;;;;-69
2023/08/14 01:51:55;;;;;;;0.2;0.1;;;;;;;;;;;;;-71
2023/08/14 01:56:22;;;;;;;;;;;;;;;16.2;70.08496;101572;;;;-70
2023/08/14 02:01:20;;;;;;;;;;;;;;;16.18;69.93652;101563.2;;;;-70
2023/08/14 02:06:23;;;;;;;;;;;;;;;16.15;70.35938;101555.6;;;;-71
2023/08/14 02:11:20;;;;;;;;;;;;;;;16.14;69.98633;101554.1;;;;-70
2023/08/14 02:16:20;;;;;;;;;;;;;;;16.12;70.60059;101550.8;;;;-70
2023/08/14 02:21:21;;;;;;;;;;;;;;;16.08;70.43848;101540.8;;;;-71
2023/08/14 02:21:57;;;;;;;0.2;0.1;;;;;;;;;;;;;-71
2023/08/14 02:26:20;;;;;;;;;;;;;;;16.07;70.86426;101533.2;;;;-70
2023/08/14 02:31:20;;;;;;;;;;;;;;;16.04;71.22949;101528.3;;;;-70
2023/08/14 02:36:20;;;;;;;;;;;;;;;16.06;70.80566;101527.4;;;;-70
2023/08/14 02:41:20;;;;;;;;;;;;;;;16;70.72949;101531;;;;-69
2023/08/14 02:46:21;;;;;;;;;;;;;;;15.98;70.78223;101530.9;;;;-71
2023/08/14 02:51:20;;;;;;;;;;;;;;;15.96;71.29492;101529.3;;;;-70
2023/08/14 02:52:00;;;;;;;0.2;0;;;;;;;;;;;;;-71
2023/08/14 02:56:20;;;;;;;;;;;;;;;15.94;71.10059;101526.4;;;;-71
2023/08/14 03:01:20;;;;;;;;;;;;;;;15.93;71.30176;101528.6;;;;-71
2023/08/14 03:06:21;;;;;;;;;;;;;;;15.92;71.44434;101532.8;;;;-71
2023/08/14 03:11:20;;;;;;;;;;;;;;;15.89;71.31641;101539.3;;;;-71
2023/08/14 03:16:20;;;;;;;;;;;;;;;15.88;71.64063;101547.1;;;;-71
2023/08/14 03:21:20;;;;;;;;;;;;;;;15.85;71.95117;101544.8;;;;-71
2023/08/14 03:22:02;;;;;;;0.2;0;;;;;;;;;;;;;-70
2023/08/14 03:26:20;;;;;;;;;;;;;;;15.8;72.33691;101547.4;;;;-70
2023/08/14 03:31:20;;;;;;;;;;;;;;;15.8;72.39258;101544.6;;;;-71
2023/08/14 03:36:20;;;;;;;;;;;;;;;15.78;72.40039;101549;;;;-70
2023/08/14 03:41:21;;;;;;;;;;;;;;;15.77;71.93652;101543;;;;-70
2023/08/14 03:46:20;;;;;;;;;;;;;;;15.75;72.2041;101543.2;;;;-70
2023/08/14 03:51:20;;;;;;;;;;;;;;;15.73;72.26855;101542.6;;;;-69
2023/08/14 03:52:05;;;;;;;0.2;0.1;;;;;;;;;;;;;-71
2023/08/14 03:56:20;;;;;;;;;;;;;;;15.76;73.42871;101540.8;;;;-70
2023/08/14 04:01:23;;;;;;;;;;;;;;;15.7;72.65527;101539.3;;;;-71
2023/08/14 04:06:21;;;;;;;;;;;;;;;15.69;73.41699;101531.6;;;;-70
2023/08/14 04:11:21;;;;;;;;;;;;;;;15.69;72.47461;101526.5;;;;-70
2023/08/14 04:16:20;;;;;;;;;;;;;;;15.66;72.8291;101527.6;;;;-70
2023/08/14 04:21:20;;;;;;;;;;;;;;;15.65;72.47949;101524.9;;;;-72
2023/08/14 04:22:08;;;;;;;0.2;0;;;;;;;;;;;;;-71
2023/08/14 04:26:22;;;;;;;;;;;;;;;15.61;73.35938;101523.8;;;;-71
2023/08/14 04:31:24;;;;;;;;;;;;;;;15.61;72.88867;101532.9;;;;-72
2023/08/14 04:36:20;;;;;;;;;;;;;;;15.6;73.29102;101524.2;;;;-70
2023/08/14 04:41:23;;;;;;;;;;;;;;;15.62;74.22363;101525.2;;;;-71
2023/08/14 04:46:30;;;;;;;;;;;;;;;15.59;73.81641;101523.9;;;;-70
2023/08/14 04:51:20;;;;;;;;;;;;;;;15.62;73.52832;101522.5;;;;-70
2023/08/14 04:52:10;;;;;;;0.2;0.1;;;;;;;;;;;;;-71
2023/08/14 04:56:20;;;;;;;;;;;;;;;15.65;73.04004;101529.8;;;;-71
2023/08/14 05:01:20;;;;;;;;;;;;;;;15.66;73.07715;101533.2;;;;-72
2023/08/14 05:06:20;;;;;;;;;;;;;;;15.65;73.25391;101537.6;;;;-70
2023/08/14 05:11:20;;;;;;;;;;;;;;;15.71;73.5;101529.2;;;;-70
2023/08/14 05:16:21;;;;;;;;;;;;;;;15.73;73.00879;101521.9;;;;-70
2023/08/14 05:21:20;;;;;;;;;;;;;;;15.79;72.86133;101523.2;;;;-71
2023/08/14 05:22:13;;;;;;;0.2;0;;;;;;;;;;;;;-69
2023/08/14 05:26:20;;;;;;;;;;;;;;;15.84;72.71289;101532.5;;;;-70
2023/08/14 05:31:20;;;;;;;;;;;;;;;15.85;72.96289;101530.7;;;;-71
2023/08/14 05:36:20;;;;;;;;;;;;;;;15.9;72.7793;101533.2;;;;-70
2023/08/14 05:41:21;;;;;;;;;;;;;;;15.94;73.12207;101536.5;;;;-70
2023/08/14 05:46:24;;;;;;;;;;;;;;;15.96;72.6084;101531;;;;-70
2023/08/14 05:51:22;;;;;;;;;;;;;;;16;72.76074;101525.3;;;;-69
2023/08/14 05:52:16;;;;;;;0.2;0;;;;;;;;;;;;;-71
2023/08/14 05:56:20;;;;;;;;;;;;;;;16.04;72.07227;101530.7;;;;-71
2023/08/14 06:01:20;;;;;;;;;;;;;;;16.08;72.33594;101531.5;;;;-70
2023/08/14 06:06:20;;;;;;;;;;;;;;;16.15;71.93359;101534.1;;;;-71
2023/08/14 06:11:20;;;;;;;;;;;;;;;16.22;71.68555;101534.2;;;;-70
2023/08/14 06:16:20;;;;;;;;;;;;;;;16.31;71.73438;101528.9;;;;-69
2023/08/14 06:21:20;;;;;;;;;;;;;;;16.44;71.47363;101527.2;;;;-70
2023/08/14 06:22:19;;;;;;;0.2;0;;;;;;;;;;;;;-72
2023/08/14 06:26:21;;;;;;;;;;;;;;;16.56;71.81934;101533.6;;;;-70
2023/08/14 06:31:20;;;;;;;;;;;;;;;16.65;71.7998;101530.1;;;;-70
2023/08/14 06:36:20;;;;;;;;;;;;;;;16.76;71.66016;101536.4;;;;-70
2023/08/14 06:41:20;;;;;;;;;;;;;;;16.85;71.77734;101540.6;;;;-70
2023/08/14 06:46:20;;;;;;;;;;;;;;;16.95;71.4209;101542.4;;;;-71
2023/08/14 06:51:20;;;;;;;;;;;;;;;17.07;71.8457;101538.3;;;;-69
2023/08/14 06:52:21;;;;;;;0.2;0;;;;;;;;;;;;;-70
2023/08/14 06:56:20;;;;;;;;;;;;;;;17.23;73.14453;101537.2;;;;-70
2023/08/14 07:01:20;;;;;;;;;;;;;;;17.47;73.19434;101538.7;;;;-70
2023/08/14 07:06:20;;;;;;;;;;;;;;;17.66;73.40625;101545.8;;;;-72
2023/08/14 07:11:20;;;;;;;;;;;;;;;17.8;73.77832;101547.6;;;;-71
2023/08/14 07:16:20;;;;;;;;;;;;;;;17.9;73.14258;101552.3;;;;-69
2023/08/14 07:21:20;;;;;;;;;;;;;;;18.03;72.23828;101552.9;;;;-70
2023/08/14 07:22:25;;;;;;;0.2;0;;;;;;;;;;;;;-71
2023/08/14 07:26:20;;;;;;;;;;;;;;;18.18;71.87793;101561.6;;;;-70
2023/08/14 07:31:20;;;;;;;;;;;;;;;18.31;71.56055;101556.5;;;;-70
2023/08/14 07:36:20;;;;;;;;;;;;;;;18.44;72.13574;101558.4;;;;-72
2023/08/14 07:41:20;;;;;;;;;;;;;;;18.69;71.84766;101545.4;;;;-71
2023/08/14 07:46:21;;;;;;;;;;;;;;;19.4;70.10547;101559.1;;;;-71
2023/08/14 07:51:29;;;;;;;;;;;;;;;20.26;68.26563;101564.2;;;;-71
2023/08/14 07:52:28;;;;;;;0.4;0.2;;;;;;;;;;;;;-71
2023/08/14 07:56:20;;;;;;;;;;;;;;;20.72;66.88086;101552.7;;;;-70
2023/08/14 08:01:20;;;;;;;;;;;;;;;20.81;66.29199;101549.9;;;;-70
2023/08/14 08:06:20;;;;;;;;;;;;;;;20.82;66.33887;101555.3;;;;-70
2023/08/14 08:11:20;;;;;;;;;;;;;;;21.1;66.12891;101556.1;;;;-70
2023/08/14 08:16:20;;;;;;;;;;;;;;;21.75;65.06445;101539.7;;;;-71
2023/08/14 08:21:20;;;;;;;;;;;;;;;22.47;62.21973;101532.2;;;;-71
2023/08/14 08:22:31;;;;;;;0.3;0.2;;;;;;;;;;;;;-69
2023/08/14 08:26:20;;;;;;;;;;;;;;;23;61.40039;101531.3;;;;-70
2023/08/14 08:31:20;;;;;;;;;;;;;;;23.41;60.24316;101532.8;;;;-70
2023/08/14 08:36:20;;;;;;;;;;;;;;;23.52;59.69434;101522.9;;;;-72
2023/08/14 08:41:24;;;;;;;;;;;;;;;23.4;59.67871;101527.8;;;;-71
2023/08/14 08:46:23;;;;;;;;;;;;;;;23.53;59.67383;101516.3;;;;-71
2023/08/14 08:51:21;;;;;;;;;;;;;;;23.86;59.52246;101519.3;;;;-70
2023/08/14 08:52:35;;;;;;;0.3;0.1;;;;;;;;;;;;;-70
2023/08/14 08:56:20;;;;;;;;;;;;;;;23.95;59.08496;101515.5;;;;-71
2023/08/14 09:01:20;;;;;;;;;;;;;;;24.22;58.67383;101517.6;;;;-71
2023/08/14 09:06:20;;;;;;;;;;;;;;;24.42;58.43555;101517;;;;-70
2023/08/14 09:11:20;;;;;;;;;;;;;;;24.7;58.3916;101509.9;;;;-70
2023/08/14 09:16:23;;;;;;;;;;;;;;;25.01;57.33789;101517.9;;;;-70
2023/08/14 09:21:21;;;;;;;;;;;;;;;25.16;56.88379;101517.3;;;;-71
2023/08/14 09:22:40;;;;;;;0.2;0.1;;;;;;;;;;;;;-70
2023/08/14 09:26:20;;;;;;;;;;;;;;;25.55;56.4043;101512.7;;;;-70
2023/08/14 09:31:20;;;;;;;;;;;;;;;25.91;55.22559;101513.9;;;;-70
2023/08/14 09:36:21;;;;;;;;;;;;;;;26.16;53.74316;101520.7;;;;-70
2023/08/14 09:41:22;;;;;;;;;;;;;;;26.12;54.26953;101509.2;;;;-69
2023/08/14 09:46:21;;;;;;;;;;;;;;;26.32;54.17773;101501.1;;;;-71
2023/08/14 09:51:23;;;;;;;;;;;;;;;26.71;53.57617;101494.8;;;;-71
2023/08/14 09:52:43;;;;;;;0.2;0;;;;;;;;;;;;;-70
2023/08/14 09:56:21;;;;;;;;;;;;;;;27.04;53.07129;101488.8;;;;-71
2023/08/14 10:01:21;;;;;;;;;;;;;;;27.33;52.63086;101486.4;;;;-71
2023/08/14 10:06:21;;;;;;;;;;;;;;;27.54;52.38867;101482.6;;;;-70
2023/08/14 10:11:26;;;;;;;;;;;;;;;27.82;51.64355;101482;;;;-69
2023/08/14 10:16:22;;;;;;;;;;;;;;;28.04;50.65918;101462;;;;-68
2023/08/14 10:21:21;;;;;;;;;;;;;;;27.98;51.15137;101457;;;;-67
2023/08/14 10:22:48;;;;;;;0.2;0.1;;;;;;;;;;;;;-69
2023/08/14 10:26:20;;;;;;;;;;;;;;;28.13;53.97754;101454.8;;;;-70
2023/08/14 10:31:20;;;;;;;;;;;;;;;28.49;50.88379;101457.9;;;;-69
2023/08/14 10:36:25;;;;;;;;;;;;;;;28.76;51.12305;101461;;;;-69
2023/08/14 10:41:25;;;;;;;;;;;;;;;28.94;50.49121;101447.6;;;;-68
2023/08/14 10:46:21;;;;;;;;;;;;;;;29.08;50.62402;101447.1;;;;-68
2023/08/14 10:51:23;;;;;;;;;;;;;;;28.95;53.40039;101439.2;;;;-69
2023/08/14 10:52:56;;;;;;;0.3;0.1;;;;;;;;;;;;;-70
2023/08/14 10:56:20;;;;;;;;;;;;;;;29.11;51.16211;101439.3;;;;-70
2023/08/14 11:01:21;;;;;;;;;;;;;;;29.15;51.70215;101446.6;;;;-68
2023/08/14 11:06:26;;;;;;;;;;;;;;;29.01;50.87207;101439.9;;;;-68
2023/08/14 11:11:20;;;;;;;;;;;;;;;28.98;52.06641;101432.9;;;;-69
2023/08/14 11:16:21;;;;;;;;;;;;;;;28.8;52.17285;101435.6;;;;-69
2023/08/14 11:21:20;;;;;;;;;;;;;;;28.71;53.5459;101427.8;;;;-73
2023/08/14 11:22:59;;;;;;;0.3;0.2;;;;;;;;;;;;;-74
2023/08/14 11:26:20;;;;;;;;;;;;;;;28.81;52.29004;101426.9;;;;-72
2023/08/14 11:31:20;;;;;;;;;;;;;;;28.8;50.10352;101426.9;;;;-75
2023/08/14 11:36:20;;;;;;;;;;;;;;;29.14;53.25977;101420;;;;-73
2023/08/14 11:41:20;;;;;;;;;;;;;;;29.42;51.67383;101413.1;;;;-75
2023/08/14 11:46:21;;;;;;;;;;;;;;;29.64;52.18945;101413.4;;;;-73
2023/08/14 11:51:21;;;;;;;;;;;;;;;29.91;52.04492;101411;;;;-74
2023/08/14 11:53:04;;;;;;;0.2;0.1;;;;;;;;;;;;;-72
2023/08/14 11:56:20;;;;;;;;;;;;;;;29.84;49.84473;101411.8;;;;-74
2023/08/14 12:01:20;;;;;;;;;;;;;;;29.72;51.64941;101415.2;;;;-74
2023/08/14 12:06:20;;;;;;;;;;;;;;;29.58;50.16699;101414.5;;;;-74
2023/08/14 12:11:23;;;;;;;;;;;;;;;29.68;49.80371;101417.3;;;;-73
2023/08/14 12:16:20;;;;;;;;;;;;;;;29.6;51.56641;101410.3;;;;-74
2023/08/14 12:21:20;;;;;;;;;;;;;;;29.65;50.20898;101406.8;;;;-74
2023/08/14 12:23:18;;;;;;;0.2;0;;;;;;;;;;;;;-74
2023/08/14 12:26:20;;;;;;;;;;;;;;;29.88;52.625;101399.7;;;;-74
2023/08/14 12:31:20;;;;;;;;;;;;;;;29.94;50.78906;101397.2;;;;-68
2023/08/14 12:36:20;;;;;;;;;;;;;;;30.14;50.03027;101394.4;;;;-69
2023/08/14 12:41:20;;;;;;;;;;;;;;;30.21;48.06445;101384.1;;;;-68
2023/08/14 12:46:20;;;;;;;;;;;;;;;30.28;49.92871;101384.6;;;;-69
2023/08/14 12:51:20;;;;;;;;;;;;;;;30.24;52.12988;101375;;;;-67
2023/08/14 12:53:16;;;;;;;0.2;0;;;;;;;;;;;;;-69
2023/08/14 12:56:20;;;;;;;;;;;;;;;30.43;51.21777;101375.2;;;;-69
2023/08/14 13:01:20;;;;;;;;;;;;;;;30.43;49.0918;101377.2;;;;-69
2023/08/14 13:06:20;;;;;;;;;;;;;;;30.5;50.33887;101367.6;;;;-69
2023/08/14 13:11:21;;;;;;;;;;;;;;;30.67;50.75293;101373.8;;;;-68
2023/08/14 13:16:20;;;;;;;;;;;;;;;30.66;49.92285;101370.3;;;;-68
2023/08/14 13:21:20;;;;;;;;;;;;;;;30.74;49.24219;101376.3;;;;-70
2023/08/14 13:23:20;;;;;;;0.2;0;;;;;;;;;;;;;-68
2023/08/14 13:26:20;;;;;;;;;;;;;;;30.81;50.16211;101364.4;;;;-68
2023/08/14 13:31:20;;;;;;;;;;;;;;;30.97;50.13281;101362.9;;;;-71
2023/08/14 13:36:20;;;;;;;;;;;;;;;31;49.48145;101355.1;;;;-69
2023/08/14 13:41:20;;;;;;;;;;;;;;;31.03;50.16211;101341.4;;;;-69
2023/08/14 13:46:20;;;;;;;;;;;;;;;31.34;49.73926;101340.2;;;;-69
2023/08/14 13:51:20;;;;;;;;;;;;;;;31.32;50.21777;101338;;;;-70
2023/08/14 13:53:26;;;;;;;0.2;0;;;;;;;;;;;;;-68
2023/08/14 13:56:20;;;;;;;;;;;;;;;31.08;49.37305;101340.2;;;;-68
2023/08/14 14:01:20;;;;;;;;;;;;;;;31.02;49.41309;101328.9;;;;-67
2023/08/14 14:06:20;;;;;;;;;;;;;;;31.13;48.55957;101323;;;;-68
2023/08/14 14:11:20;;;;;;;;;;;;;;;31.19;49.55957;101324.9;;;;-68
2023/08/14 14:16:25;;;;;;;;;;;;;;;31.34;48.85059;101315.2;;;;-69
2023/08/14 14:21:20;;;;;;;;;;;;;;;31.36;49.3916;101326;;;;-69
2023/08/14 14:23:32;;;;;;;0.2;0;;;;;;;;;;;;;-69
2023/08/14 14:26:20;;;;;;;;;;;;;;;31.2;46.57617;101322.3;;;;-69
2023/08/14 14:31:20;;;;;;;;;;;;;;;31.02;46.58203;101323.3;;;;-69
2023/08/14 14:36:20;;;;;;;;;;;;;;;30.89;48.66211;101326.8;;;;-68
2023/08/14 14:41:20;;;;;;;;;;;;;;;30.66;48.20508;101325.4;;;;-69
2023/08/14 14:46:20;;;;;;;;;;;;;;;30.41;48.07422;101324.2;;;;-69
2023/08/14 14:51:23;;;;;;;;;;;;;;;30.32;49.2666;101316;;;;-69
2023/08/14 14:53:38;;;;;;;0.3;0.1;;;;;;;;;;;;;-69
2023/08/14 14:56:20;;;;;;;;;;;;;;;30.62;49.7207;101308.3;;;;-69
2023/08/14 15:01:20;;;;;;;;;;;;;;;30.8;48.43164;101297.3;;;;-68
2023/08/14 15:06:20;;;;;;;;;;;;;;;30.64;48.17969;101294.6;;;;-70
2023/08/14 15:11:20;;;;;;;;;;;;;;;30.38;47.67285;101301.5;;;;-68
2023/08/14 15:16:20;;;;;;;;;;;;;;;30.36;47.16895;101299;;;;-69
2023/08/14 15:21:20;;;;;;;;;;;;;;;30.55;48.48633;101290.4;;;;-70
2023/08/14 15:23:43;;;;;;;0.1;0;;;;;;;;;;;;;-70
2023/08/14 15:26:20;;;;;;;;;;;;;;;30.92;46.89941;101291.9;;;;-68
2023/08/14 15:31:20;;;;;;;;;;;;;;;31.03;47.91699;101295.4;;;;-68
2023/08/14 15:36:21;;;;;;;;;;;;;;;31.08;47.41895;101284.7;;;;-69
2023/08/14 15:41:20;;;;;;;;;;;;;;;31.06;47.13574;101287.3;;;;-68
2023/08/14 15:46:20;;;;;;;;;;;;;;;30.98;46.76563;101281.4;;;;-69
2023/08/14 15:51:22;;;;;;;;;;;;;;;30.97;48.26172;101281;;;;-74
2023/08/14 15:53:49;;;;;;;0.2;0;;;;;;;;;;;;;-69
2023/08/14 15:56:20;;;;;;;;;;;;;;;31.06;47.28809;101280.5;;;;-69
2023/08/14 16:01:21;;;;;;;;;;;;;;;30.94;48.21191;101284.9;;;;-69
2023/08/14 16:06:20;;;;;;;;;;;;;;;30.67;49.49219;101282.8;;;;-69
2023/08/14 16:11:20;;;;;;;;;;;;;;;30.4;47.61621;101292.3;;;;-69
2023/08/14 16:16:20;;;;;;;;;;;;;;;30.09;49.47559;101292.4;;;;-69
2023/08/14 16:21:20;;;;;;;;;;;;;;;29.87;50.04688;101289.8;;;;-68
2023/08/14 16:23:55;;;;;;;0.4;0.2;;;;;;;;;;;;;-68
2023/08/14 16:26:22;;;;;;;;;;;;;;;29.73;49.37891;101289.4;;;;-68
2023/08/14 16:31:20;;;;;;;;;;;;;;;29.65;49.45117;101287.8;;;;-68
2023/08/14 16:36:20;;;;;;;;;;;;;;;29.57;48.75488;101288.8;;;;-69
2023/08/14 16:41:20;;;;;;;;;;;;;;;29.49;50.20215;101294.1;;;;-68
2023/08/14 16:46:20;;;;;;;;;;;;;;;29.6;50.23926;101286.8;;;;-69
2023/08/14 16:51:20;;;;;;;;;;;;;;;29.54;50.83789;101297.6;;;;-68
2023/08/14 16:54:00;;;;;;;0.2;0;;;;;;;;;;;;;-69
2023/08/14 16:56:20;;;;;;;;;;;;;;;29.44;50.25586;101293.5;;;;-68
2023/08/14 17:01:23;;;;;;;;;;;;;;;29.22;50.67383;101284.2;;;;-70
2023/08/14 17:06:20;;;;;;;;;;;;;;;29.07;50.27246;101281.9;;;;-69
2023/08/14 17:11:20;;;;;;;;;;;;;;;29.01;51.10449;101292;;;;-68
2023/08/14 17:16:20;;;;;;;;;;;;;;;28.92;50.65234;101294.5;;;;-70
2023/08/14 17:21:20;;;;;;;;;;;;;;;28.75;50.20215;101295.8;;;;-70
2023/08/14 17:24:06;;;;;;;0.2;0;;;;;;;;;;;;;-69
2023/08/14 17:26:20;;;;;;;;;;;;;;;28.51;49.78125;101292.9;;;;-69
2023/08/14 17:31:20;;;;;;;;;;;;;;;28.32;50.59668;101303.9;;;;-68
2023/08/14 17:36:20;;;;;;;;;;;;;;;28.2;50.60547;101299.8;;;;-69
2023/08/14 17:41:20;;;;;;;;;;;;;;;28.01;50.85156;101304.1;;;;-69
2023/08/14 17:46:20;;;;;;;;;;;;;;;27.78;51.53418;101301.4;;;;-69
2023/08/14 17:51:23;;;;;;;;;;;;;;;27.59;51.79199;101303;;;;-70
2023/08/14 17:54:11;;;;;;;0.2;0;;;;;;;;;;;;;-69
2023/08/14 17:56:20;;;;;;;;;;;;;;;27.39;52.03613;101313;;;;-68
2023/08/14 18:01:20;;;;;;;;;;;;;;;27.18;52.28809;101304.6;;;;-69
2023/08/14 18:06:20;;;;;;;;;;;;;;;27.01;52.43066;101305.3;;;;-69
2023/08/14 18:11:20;;;;;;;;;;;;;;;26.82;52.17773;101304.3;;;;-66
2023/08/14 18:16:20;;;;;;;;;;;;;;;26.65;51.91504;101296.6;;;;-69
2023/08/14 18:21:20;;;;;;;;;;;;;;;26.49;52.04883;101297.8;;;;-69
2023/08/14 18:24:16;;;;;;;0.2;0.1;;;;;;;;;;;;;-68
2023/08/14 18:26:20;;;;;;;;;;;;;;;26.32;51.96973;101297.2;;;;-70
2023/08/14 18:31:20;;;;;;;;;;;;;;;26.11;52.45508;101295.6;;;;-68
2023/08/14 18:36:20;;;;;;;;;;;;;;;25.93;52.65234;101303.2;;;;-68
2023/08/14 18:41:20;;;;;;;;;;;;;;;25.74;52.59668;101294.2;;;;-68
2023/08/14 18:46:20;;;;;;;;;;;;;;;25.56;52.47168;101294.5;;;;-68
2023/08/14 18:51:20;;;;;;;;;;;;;;;25.37;52.93359;101299;;;;-69
2023/08/14 18:54:21;;;;;;;0.2;0;;;;;;;;;;;;;-68
2023/08/14 18:56:20;;;;;;;;;;;;;;;25.19;53.0166;101299.1;;;;-68
2023/08/14 19:01:20;;;;;;;;;;;;;;;25.02;53.3418;101296.9;;;;-69
2023/08/14 19:06:20;;;;;;;;;;;;;;;24.85;53.63281;101293.2;;;;-69
2023/08/14 19:11:20;;;;;;;;;;;;;;;24.68;53.7168;101292.9;;;;-68
2023/08/14 19:16:20;;;;;;;;;;;;;;;24.53;53.79102;101299;;;;-69
2023/08/14 19:21:20;;;;;;;;;;;;;;;24.36;53.60938;101303.6;;;;-68
2023/08/14 19:24:25;;;;;;;0.2;0.1;;;;;;;;;;;;;-70
2023/08/14 19:26:20;;;;;;;;;;;;;;;24.21;53.87891;101302;;;;-68
2023/08/14 19:31:21;;;;;;;;;;;;;;;24.06;53.83789;101304.2;;;;-70
2023/08/14 19:36:20;;;;;;;;;;;;;;;23.92;54.03906;101311.5;;;;-68
2023/08/14 19:41:20;;;;;;;;;;;;;;;23.78;54.0918;101313.9;;;;-70
2023/08/14 19:46:20;;;;;;;;;;;;;;;23.64;54.29395;101315.9;;;;-69
2023/08/14 19:51:20;;;;;;;;;;;;;;;23.51;54.20898;101309.4;;;;-69
2023/08/14 19:54:29;;;;;;;0.2;0.1;;;;;;;;;;;;;-70
2023/08/14 19:56:20;;;;;;;;;;;;;;;23.37;54.70801;101318.8;;;;-70
2023/08/14 20:01:21;;;;;;;;;;;;;;;23.23;54.55371;101315.6;;;;-72
2023/08/14 20:06:22;;;;;;;;;;;;;;;23.09;54.75391;101311.3;;;;-71
2023/08/14 20:11:20;;;;;;;;;;;;;;;22.97;55.09473;101304.6;;;;-68
2023/08/14 20:16:20;;;;;;;;;;;;;;;22.85;55.0918;101306.7;;;;-68
2023/08/14 20:21:20;;;;;;;;;;;;;;;22.73;55.36426;101302.4;;;;-70
2023/08/14 20:24:33;;;;;;;0.4;0.2;;;;;;;;;;;;;-68
2023/08/14 20:26:20;;;;;;;;;;;;;;;22.62;55.70508;101302.6;;;;-69
2023/08/14 20:31:24;;;;;;;;;;;;;;;22.52;55.63574;101301.1;;;;-68
2023/08/14 20:36:26;;;;;;;;;;;;;;;22.43;55.76172;101299.9;;;;-68
2023/08/14 20:41:20;;;;;;;;;;;;;;;22.32;56.12598;101295.7;;;;-69
2023/08/14 20:46:20;;;;;;;;;;;;;;;22.22;56.54883;101296.4;;;;-70
2023/08/14 20:51:20;;;;;;;;;;;;;;;22.13;56.70898;101298.9;;;;-70
2023/08/14 20:54:38;;;;;;;0.2;0.1;;;;;;;;;;;;;-68
2023/08/14 20:56:20;;;;;;;;;;;;;;;22.05;56.35449;101295.7;;;;-68
2023/08/14 21:01:20;;;;;;;;;;;;;;;21.98;56.76953;101295.5;;;;-70
2023/08/14 21:06:20;;;;;;;;;;;;;;;21.91;57.14844;101296.2;;;;-70
2023/08/14 21:11:20;;;;;;;;;;;;;;;21.85;57.19922;101290.9;;;;-69
2023/08/14 21:16:20;;;;;;;;;;;;;;;21.76;57.51953;101284.7;;;;-71
2023/08/14 21:21:20;;;;;;;;;;;;;;;21.68;57.55371;101280.4;;;;-71
2023/08/14 21:24:42;;;;;;;0.3;0.1;;;;;;;;;;;;;-70
2023/08/14 21:26:20;;;;;;;;;;;;;;;21.64;57.70898;101276.1;;;;-72
2023/08/14 21:31:20;;;;;;;;;;;;;;;21.58;57.99902;101280.7;;;;-71
2023/08/14 21:36:20;;;;;;;;;;;;;;;21.48;58.10059;101276.8;;;;-69
2023/08/14 21:41:20;;;;;;;;;;;;;;;21.44;57.87891;101274.9;;;;-70
2023/08/14 21:46:22;;;;;;;;;;;;;;;21.38;58.33887;101268.5;;;;-71
2023/08/14 21:51:22;;;;;;;;;;;;;;;21.31;58.24902;101268.7;;;;-72
2023/08/14 21:54:46;;;;;;;1;0.3;;;;;;;;;;;;;-72
2023/08/14 21:56:20;;;;;;;;;;;;;;;21.25;58.56055;101261.5;;;;-69
2023/08/14 22:01:20;;;;;;;;;;;;;;;21.18;58.55176;101270;;;;-70
2023/08/14 22:06:25;;;;;;;;;;;;;;;21.16;58.81055;101275.8;;;;-69
2023/08/14 22:11:20;;;;;;;;;;;;;;;21.12;59.23926;101293.1;;;;-70
2023/08/14 22:16:20;;;;;;;;;;;;;;;21.02;59.44238;101310.6;;;;-71
2023/08/14 22:21:20;;;;;;;;;;;;;;;20.96;60.31348;101309.1;;;;-71
2023/08/14 22:24:49;;;;;;;0.2;0;;;;;;;;;;;;;-70
2023/08/14 22:26:20;;;;;;;;;;;;;;;20.88;60.10742;101311.1;;;;-70
2023/08/14 22:31:20;;;;;;;;;;;;;;;20.8;60.22168;101302.6;;;;-71
2023/08/14 22:36:21;;;;;;;;;;;;;;;20.72;60.22363;101312.7;;;;-70
2023/08/14 22:41:21;;;;;;;;;;;;;;;20.68;60.18262;101321;;;;-70
2023/08/14 22:46:23;;;;;;;;;;;;;;;20.64;60.11133;101320.4;;;;-70
2023/08/14 22:51:20;;;;;;;;;;;;;;;20.62;60.20996;101317.5;;;;-70
2023/08/14 22:54:53;;;;;;;0.4;0.2;;;;;;;;;;;;;-70
2023/08/14 22:56:20;;;;;;;;;;;;;;;20.55;60.2002;101320;;;;-70
2023/08/14 23:01:20;;;;;;;;;;;;;;;20.49;60.34082;101311.1;;;;-71
2023/08/14 23:06:20;;;;;;;;;;;;;;;20.39;60.25977;101325;;;;-70
2023/08/14 23:11:20;;;;;;;;;;;;;;;20.33;60.13672;101316.2;;;;-70
2023/08/14 23:16:20;;;;;;;;;;;;;;;20.26;60.20703;101304.3;;;;-71
2023/08/14 23:21:20;;;;;;;;;;;;;;;20.18;60.34473;101301.5;;;;-71
2023/08/14 23:24:57;;;;;;;0.2;0;;;;;;;;;;;;;-71
2023/08/14 23:26:20;;;;;;;;;;;;;;;20.12;60.24609;101302;;;;-72
2023/08/14 23:31:21;;;;;;;;;;;;;;;20.04;60.33691;101295.6;;;;-69
2023/08/14 23:36:20;;;;;;;;;;;;;;;19.96;60.19922;101292.4;;;;-70
2023/08/14 23:41:20;;;;;;;;;;;;;;;19.89;60.13379;101301.1;;;;-70
2023/08/14 23:46:20;;;;;;;;;;;;;;;19.81;60.2373;101294.1;;;;-70
2023/08/14 23:51:20;;;;;;;;;;;;;;;19.71;60.25586;101292.5;;;;-70
2023/08/14 23:55:00;;;;;;;0.3;0.1;;;;;;;;;;;;;-71
2023/08/14 23:56:20;;;;;;;;;;;;;;;19.65;60.20313;101280.9;;;;-70
